createdAt,value
2018-06-16T00:00:42.227Z,50.7
2018-06-16T00:10:56.600Z,49.8
2018-06-16T00:21:10.489Z,49.6
2018-06-16T00:31:24.978Z,50.0
2018-06-16T00:41:38.859Z,50.6
2018-06-16T01:02:21.409Z,50.1
2018-06-16T01:12:33.753Z,50.4
2018-06-16T01:22:47.980Z,50.5
2018-06-16T01:33:02.235Z,51.1
2018-06-16T01:43:16.141Z,50.5
2018-06-16T01:55:23.696Z,50.6
2018-06-16T02:05:37.371Z,50.9
2018-06-16T02:15:51.417Z,50.6
2018-06-16T02:26:05.880Z,50.2
2018-06-16T02:36:50.397Z,50.7
2018-06-16T02:47:35.211Z,50.4
2018-06-16T02:58:21.103Z,51.2
2018-06-16T03:08:35.365Z,51.1
2018-06-16T03:18:49.995Z,50.6
2018-06-16T03:29:34.089Z,50.2
2018-06-16T03:39:45.727Z,50.4
2018-06-16T03:50:00.016Z,50.4
2018-06-16T04:02:09.690Z,49.8
2018-06-16T04:12:21.214Z,49.9
2018-06-16T04:22:35.301Z,49.7
2018-06-16T04:33:20.053Z,50.0
2018-06-16T04:43:34.148Z,49.7
2018-06-16T04:55:52.607Z,50.0
2018-06-16T05:06:06.869Z,50.1
2018-06-16T05:17:55.586Z,50.4
2018-06-16T05:28:09.110Z,52.4
2018-06-16T05:38:23.320Z,52.6
2018-06-16T05:48:37.563Z,51.4
2018-06-16T05:58:51.775Z,52.2
2018-06-16T06:09:05.965Z,52.7
2018-06-16T06:19:56.101Z,53.3
2018-06-16T06:31:48.105Z,54.2
2018-06-16T06:42:00.204Z,54.5
2018-06-16T06:52:14.686Z,55.1
2018-06-16T07:02:59.179Z,54.3
2018-06-16T07:14:30.068Z,54.3
2018-06-16T07:41:00.887Z,53.9
2018-06-16T07:51:15.584Z,53.1
2018-06-16T08:02:00.901Z,52.2
2018-06-16T08:13:00.863Z,50.5
2018-06-16T08:23:21.191Z,49.4
2018-06-16T08:33:35.483Z,48.4
2018-06-16T08:43:48.884Z,48.0
2018-06-16T08:55:13.878Z,47.8
2018-06-16T09:15:47.894Z,46.4
2018-06-16T09:26:01.513Z,45.6
2018-06-16T09:36:18.865Z,45.4
2018-06-16T09:46:35.522Z,44.6
2018-06-16T09:57:19.660Z,42.8
2018-06-16T10:07:33.682Z,40.7
2018-06-16T10:18:18.556Z,39.5
2018-06-16T10:29:03.630Z,39.2
2018-06-16T10:39:18.329Z,39.2
2018-06-16T10:59:54.441Z,37.1
2018-06-16T11:10:08.954Z,36.9
2018-06-16T11:20:35.823Z,36.6
2018-06-16T11:31:01.227Z,37.0
2018-06-16T11:41:17.192Z,37.7
2018-06-16T12:02:24.444Z,38.5
2018-06-16T12:12:39.505Z,38.7
2018-06-16T12:23:10.809Z,39.8
2018-06-16T12:33:25.713Z,40.0
2018-06-16T12:43:40.952Z,40.0
2018-06-16T12:53:56.051Z,40.2
2018-06-16T13:06:33.060Z,40.0
2018-06-16T13:17:19.073Z,39.4
2018-06-16T13:27:33.493Z,38.0
2018-06-16T14:01:29.666Z,37.6
2018-06-16T14:12:24.702Z,37.8
2018-06-16T14:37:18.085Z,37.7
2018-06-16T14:47:32.042Z,36.5
2018-06-16T14:57:56.484Z,36.0
2018-06-16T15:08:11.677Z,36.0
2018-06-16T15:18:25.966Z,35.9
2018-06-16T15:28:40.145Z,35.1
2018-06-16T15:40:35.019Z,34.5
2018-06-16T15:51:12.135Z,35.0
2018-06-16T16:03:38.013Z,35.7
2018-06-16T16:14:23.225Z,36.3
2018-06-16T16:25:08.803Z,36.4
2018-06-16T16:35:24.903Z,36.3
2018-06-16T16:45:39.287Z,36.3
2018-06-16T16:55:53.926Z,36.7
2018-06-16T17:06:08.193Z,36.8
2018-06-16T17:16:21.862Z,36.8
2018-06-16T17:26:37.993Z,37.2
2018-06-16T17:36:52.710Z,37.7
2018-06-16T17:47:38.187Z,37.9
2018-06-16T17:57:52.672Z,38.7
2018-06-16T18:08:04.478Z,38.9
2018-06-16T18:18:19.691Z,39.0
2018-06-16T18:28:31.519Z,39.2
2018-06-16T18:38:45.413Z,40.0
2018-06-16T18:50:15.295Z,41.2
2018-06-16T19:04:23.727Z,42.5
2018-06-16T19:31:09.119Z,44.7
